sensor_id;sensor_type;location;lat;lon;timestamp;pressure;altitude;pressure_sealevel;temperature;humidity
69574;BME280;62840;52.366;5.980;2023-07-09T00:00:13;101648.91;;;21.66;62.08
69574;BME280;62840;52.366;5.980;2023-07-09T00:02:41;101657.22;;;21.65;61.94
69574;BME280;62840;52.366;5.980;2023-07-09T00:05:13;101657.59;;;21.62;62.17
69574;BME280;62840;52.366;5.980;2023-07-09T00:07:40;101641.69;;;21.59;62.30
69574;BME280;62840;52.366;5.980;2023-07-09T00:10:15;101651.19;;;21.55;62.24
69574;BME280;62840;52.366;5.980;2023-07-09T00:12:43;101642.75;;;21.50;62.44
69574;BME280;62840;52.366;5.980;2023-07-09T00:15:10;101640.38;;;21.47;62.53
69574;BME280;62840;52.366;5.980;2023-07-09T00:17:37;101639.72;;;21.44;63.12
69574;BME280;62840;52.366;5.980;2023-07-09T00:20:04;101647.19;;;21.42;62.96
69574;BME280;62840;52.366;5.980;2023-07-09T00:22:33;101645.50;;;21.41;62.94
69574;BME280;62840;52.366;5.980;2023-07-09T00:24:59;101645.00;;;21.38;63.21
69574;BME280;62840;52.366;5.980;2023-07-09T00:27:28;101637.91;;;21.37;62.98
69574;BME280;62840;52.366;5.980;2023-07-09T00:29:54;101645.38;;;21.35;63.17
69574;BME280;62840;52.366;5.980;2023-07-09T00:32:20;101643.88;;;21.32;63.09
69574;BME280;62840;52.366;5.980;2023-07-09T00:34:46;101648.63;;;21.30;63.12
69574;BME280;62840;52.366;5.980;2023-07-09T00:37:12;101647.97;;;21.28;62.97
69574;BME280;62840;52.366;5.980;2023-07-09T00:39:40;101647.28;;;21.26;63.00
69574;BME280;62840;52.366;5.980;2023-07-09T00:42:11;101643.06;;;21.23;63.09
69574;BME280;62840;52.366;5.980;2023-07-09T00:44:39;101649.66;;;21.21;63.22
69574;BME280;62840;52.366;5.980;2023-07-09T00:47:21;101656.28;;;21.18;63.75
69574;BME280;62840;52.366;5.980;2023-07-09T00:49:52;101650.38;;;21.15;63.73
69574;BME280;62840;52.366;5.980;2023-07-09T00:52:32;101653.44;;;21.12;63.52
69574;BME280;62840;52.366;5.980;2023-07-09T00:55:07;101658.19;;;21.10;63.37
69574;BME280;62840;52.366;5.980;2023-07-09T00:57:38;101654.81;;;21.08;63.43
69574;BME280;62840;52.366;5.980;2023-07-09T01:00:12;101657.69;;;21.06;64.07
69574;BME280;62840;52.366;5.980;2023-07-09T01:02:41;101662.28;;;21.06;63.73
69574;BME280;62840;52.366;5.980;2023-07-09T01:05:12;101651.97;;;21.01;63.70
69574;BME280;62840;52.366;5.980;2023-07-09T01:07:41;101653.84;;;21.00;63.73
69574;BME280;62840;52.366;5.980;2023-07-09T01:10:10;101652.13;;;20.99;64.22
69574;BME280;62840;52.366;5.980;2023-07-09T01:12:36;101654.16;;;20.97;63.78
69574;BME280;62840;52.366;5.980;2023-07-09T01:15:02;101653.31;;;20.97;64.02
69574;BME280;62840;52.366;5.980;2023-07-09T01:17:29;101654.53;;;20.94;64.24
69574;BME280;62840;52.366;5.980;2023-07-09T01:19:55;101652.84;;;20.93;64.03
69574;BME280;62840;52.366;5.980;2023-07-09T01:22:25;101654.88;;;20.91;64.30
69574;BME280;62840;52.366;5.980;2023-07-09T01:24:55;101653.19;;;20.90;64.38
69574;BME280;62840;52.366;5.980;2023-07-09T01:27:25;101652.69;;;20.87;63.73
69574;BME280;62840;52.366;5.980;2023-07-09T01:29:53;101648.44;;;20.84;64.00
69574;BME280;62840;52.366;5.980;2023-07-09T01:32:21;101648.13;;;20.79;64.43
69574;BME280;62840;52.366;5.980;2023-07-09T01:34:49;101645.78;;;20.76;64.31
69574;BME280;62840;52.366;5.980;2023-07-09T01:37:17;101646.13;;;20.73;64.52
69574;BME280;62840;52.366;5.980;2023-07-09T01:39:47;101651.22;;;20.68;64.40
69574;BME280;62840;52.366;5.980;2023-07-09T01:42:13;101646.84;;;20.67;64.37
69574;BME280;62840;52.366;5.980;2023-07-09T01:44:39;101653.44;;;20.64;64.43
69574;BME280;62840;52.366;5.980;2023-07-09T01:47:05;101644.81;;;20.60;64.19
69574;BME280;62840;52.366;5.980;2023-07-09T01:49:31;101646.69;;;20.60;64.80
69574;BME280;62840;52.366;5.980;2023-07-09T01:51:58;101649.56;;;20.58;64.42
69574;BME280;62840;52.366;5.980;2023-07-09T01:54:25;101652.25;;;20.58;64.48
69574;BME280;62840;52.366;5.980;2023-07-09T01:56:53;101651.44;;;20.58;64.38
69574;BME280;62840;52.366;5.980;2023-07-09T01:59:19;101647.88;;;20.57;64.42
69574;BME280;62840;52.366;5.980;2023-07-09T02:01:45;101652.63;;;20.55;64.78
69574;BME280;62840;52.366;5.980;2023-07-09T02:04:10;101665.50;;;20.53;64.47
69574;BME280;62840;52.366;5.980;2023-07-09T02:06:36;101662.94;;;20.52;64.84
69574;BME280;62840;52.366;5.980;2023-07-09T02:09:02;101663.09;;;20.50;64.92
69574;BME280;62840;52.366;5.980;2023-07-09T02:11:28;101661.59;;;20.48;64.70
69574;BME280;62840;52.366;5.980;2023-07-09T02:13:56;101658.41;;;20.44;64.61
69574;BME280;62840;52.366;5.980;2023-07-09T02:16:22;101660.44;;;20.42;64.68
69574;BME280;62840;52.366;5.980;2023-07-09T02:18:47;101660.44;;;20.42;64.83
69574;BME280;62840;52.366;5.980;2023-07-09T02:21:13;101660.72;;;20.39;64.85
69574;BME280;62840;52.366;5.980;2023-07-09T02:23:39;101663.63;;;20.37;64.84
69574;BME280;62840;52.366;5.980;2023-07-09T02:26:05;101661.91;;;20.36;65.14
69574;BME280;62840;52.366;5.980;2023-07-09T02:28:30;101668.38;;;20.35;65.04
69574;BME280;62840;52.366;5.980;2023-07-09T02:30:59;101667.69;;;20.33;64.93
69574;BME280;62840;52.366;5.980;2023-07-09T02:33:24;101669.56;;;20.33;64.84
69574;BME280;62840;52.366;5.980;2023-07-09T02:35:50;101668.88;;;20.31;65.24
69574;BME280;62840;52.366;5.980;2023-07-09T02:38:16;101669.88;;;20.30;65.36
69574;BME280;62840;52.366;5.980;2023-07-09T02:40:41;101672.59;;;20.30;65.51
69574;BME280;62840;52.366;5.980;2023-07-09T02:43:07;101670.25;;;20.27;65.22
69574;BME280;62840;52.366;5.980;2023-07-09T02:45:33;101671.28;;;20.26;65.57
69574;BME280;62840;52.366;5.980;2023-07-09T02:48:01;101660.59;;;20.24;65.53
69574;BME280;62840;52.366;5.980;2023-07-09T02:50:27;101667.88;;;20.24;65.14
69574;BME280;62840;52.366;5.980;2023-07-09T02:52:53;101662.47;;;20.24;65.14
69574;BME280;62840;52.366;5.980;2023-07-09T02:55:18;101666.38;;;20.21;65.47
69574;BME280;62840;52.366;5.980;2023-07-09T02:57:44;101661.09;;;20.19;65.68
69574;BME280;62840;52.366;5.980;2023-07-09T03:00:11;101661.25;;;20.18;65.65
69574;BME280;62840;52.366;5.980;2023-07-09T03:02:37;101665.16;;;20.15;65.50
69574;BME280;62840;52.366;5.980;2023-07-09T03:05:07;101663.50;;;20.14;65.81
69574;BME280;62840;52.366;5.980;2023-07-09T03:07:33;101666.19;;;20.14;65.91
69574;BME280;62840;52.366;5.980;2023-07-09T03:09:59;101671.63;;;20.14;65.77
69574;BME280;62840;52.366;5.980;2023-07-09T03:12:24;101664.50;;;20.13;65.85
69574;BME280;62840;52.366;5.980;2023-07-09T03:14:50;101667.19;;;20.13;65.55
69574;BME280;62840;52.366;5.980;2023-07-09T03:17:16;101664.66;;;20.12;65.97
69574;BME280;62840;52.366;5.980;2023-07-09T03:19:42;101663.81;;;20.11;66.02
69574;BME280;62840;52.366;5.980;2023-07-09T03:22:10;101675.66;;;20.10;65.97
69574;BME280;62840;52.366;5.980;2023-07-09T03:24:36;101664.16;;;20.08;65.68
69574;BME280;62840;52.366;5.980;2023-07-09T03:27:02;101669.56;;;20.08;66.26
69574;BME280;62840;52.366;5.980;2023-07-09T03:29:28;101669.88;;;20.05;65.81
69574;BME280;62840;52.366;5.980;2023-07-09T03:31:54;101664.66;;;20.04;65.85
69574;BME280;62840;52.366;5.980;2023-07-09T03:34:20;101666.53;;;20.03;66.25
69574;BME280;62840;52.366;5.980;2023-07-09T03:36:45;101677.38;;;20.03;66.23
69574;BME280;62840;52.366;5.980;2023-07-09T03:39:14;101665.84;;;20.01;65.93
69574;BME280;62840;52.366;5.980;2023-07-09T03:41:39;101671.28;;;20.01;65.95
69574;BME280;62840;52.366;5.980;2023-07-09T03:44:05;101665.19;;;19.99;66.07
69574;BME280;62840;52.366;5.980;2023-07-09T03:46:31;101678.03;;;19.97;66.21
69574;BME280;62840;52.366;5.980;2023-07-09T03:48:58;101670.91;;;19.96;66.50
69574;BME280;62840;52.366;5.980;2023-07-09T03:51:24;101678.34;;;19.94;66.42
69574;BME280;62840;52.366;5.980;2023-07-09T03:53:49;101677.34;;;19.95;66.52
69574;BME280;62840;52.366;5.980;2023-07-09T03:56:18;101675.66;;;19.94;66.29
69574;BME280;62840;52.366;5.980;2023-07-09T03:58:43;101671.25;;;19.93;66.55
69574;BME280;62840;52.366;5.980;2023-07-09T04:01:09;101678.34;;;19.94;66.25
69574;BME280;62840;52.366;5.980;2023-07-09T04:03:35;101676.66;;;19.93;66.62
69574;BME280;62840;52.366;5.980;2023-07-09T04:06:01;101680.06;;;19.95;66.33
69574;BME280;62840;52.366;5.980;2023-07-09T04:08:26;101674.81;;;19.93;66.48
69574;BME280;62840;52.366;5.980;2023-07-09T04:10:53;101685.47;;;19.95;66.24
69574;BME280;62840;52.366;5.980;2023-07-09T04:13:22;101683.75;;;19.94;66.81
69574;BME280;62840;52.366;5.980;2023-07-09T04:15:48;101683.75;;;19.94;66.78
69574;BME280;62840;52.366;5.980;2023-07-09T04:18:14;101686.47;;;19.94;66.41
69574;BME280;62840;52.366;5.980;2023-07-09T04:20:39;101682.09;;;19.93;66.89
69574;BME280;62840;52.366;5.980;2023-07-09T04:23:06;101685.81;;;19.92;66.51
69574;BME280;62840;52.366;5.980;2023-07-09T04:25:33;101690.88;;;19.95;66.85
69574;BME280;62840;52.366;5.980;2023-07-09T04:27:59;101692.56;;;19.96;66.78
69574;BME280;62840;52.366;5.980;2023-07-09T04:30:27;101683.44;;;19.97;66.73
69574;BME280;62840;52.366;5.980;2023-07-09T04:32:53;101687.84;;;19.98;66.63
69574;BME280;62840;52.366;5.980;2023-07-09T04:35:18;101695.66;;;20.01;66.59
69574;BME280;62840;52.366;5.980;2023-07-09T04:37:44;101697.31;;;20.02;66.58
69574;BME280;62840;52.366;5.980;2023-07-09T04:40:12;101695.28;;;20.04;66.73
69574;BME280;62840;52.366;5.980;2023-07-09T04:42:38;101697.84;;;20.06;66.50
69574;BME280;62840;52.366;5.980;2023-07-09T04:45:06;101698.69;;;20.06;66.59
69574;BME280;62840;52.366;5.980;2023-07-09T04:47:37;101702.06;;;20.08;66.83
69574;BME280;62840;52.366;5.980;2023-07-09T04:50:04;101702.75;;;20.10;66.96
69574;BME280;62840;52.366;5.980;2023-07-09T04:52:31;101703.44;;;20.12;66.51
69574;BME280;62840;52.366;5.980;2023-07-09T04:54:57;101694.28;;;20.13;66.83
69574;BME280;62840;52.366;5.980;2023-07-09T04:57:24;101697.66;;;20.15;67.13
69574;BME280;62840;52.366;5.980;2023-07-09T04:59:50;101695.28;;;20.20;67.11
69574;BME280;62840;52.366;5.980;2023-07-09T05:02:16;101705.81;;;20.24;67.14
69574;BME280;62840;52.366;5.980;2023-07-09T05:04:44;101708.16;;;20.27;66.64
69574;BME280;62840;52.366;5.980;2023-07-09T05:07:10;101699.69;;;20.30;66.43
69574;BME280;62840;52.366;5.980;2023-07-09T05:09:36;101697.66;;;20.32;66.41
69574;BME280;62840;52.366;5.980;2023-07-09T05:12:02;101699.00;;;20.36;66.67
69574;BME280;62840;52.366;5.980;2023-07-09T05:14:28;101698.66;;;20.39;66.57
69574;BME280;62840;52.366;5.980;2023-07-09T05:16:54;101697.34;;;20.43;66.85
69574;BME280;62840;52.366;5.980;2023-07-09T05:19:19;101694.31;;;20.46;66.79
69574;BME280;62840;52.366;5.980;2023-07-09T05:21:48;101698.34;;;20.50;66.63
69574;BME280;62840;52.366;5.980;2023-07-09T05:24:13;101704.28;;;20.54;66.56
69574;BME280;62840;52.366;5.980;2023-07-09T05:26:39;101695.78;;;20.57;66.95
69574;BME280;62840;52.366;5.980;2023-07-09T05:29:05;101699.84;;;20.61;66.48
69574;BME280;62840;52.366;5.980;2023-07-09T05:31:31;101698.50;;;20.65;66.36
69574;BME280;62840;52.366;5.980;2023-07-09T05:33:58;101700.69;;;20.70;66.54
69574;BME280;62840;52.366;5.980;2023-07-09T05:36:25;101702.88;;;20.74;66.40
69574;BME280;62840;52.366;5.980;2023-07-09T05:38:55;101711.16;;;20.81;66.27
69574;BME280;62840;52.366;5.980;2023-07-09T05:41:21;101705.38;;;20.84;66.98
69574;BME280;62840;52.366;5.980;2023-07-09T05:43:49;101705.75;;;20.89;66.56
69574;BME280;62840;52.366;5.980;2023-07-09T05:46:16;101703.50;;;20.93;66.69
69574;BME280;62840;52.366;5.980;2023-07-09T05:48:42;101704.69;;;20.98;66.53
69574;BME280;62840;52.366;5.980;2023-07-09T05:51:07;101711.47;;;21.02;66.60
69574;BME280;62840;52.366;5.980;2023-07-09T05:53:33;101704.66;;;21.07;67.06
69574;BME280;62840;52.366;5.980;2023-07-09T05:56:02;101710.22;;;21.13;66.88
69574;BME280;62840;52.366;5.980;2023-07-09T05:58:28;101707.00;;;21.18;67.06
69574;BME280;62840;52.366;5.980;2023-07-09T06:00:54;101707.34;;;21.23;66.89
69574;BME280;62840;52.366;5.980;2023-07-09T06:03:21;101705.78;;;21.29;66.44
69574;BME280;62840;52.366;5.980;2023-07-09T06:05:48;101712.53;;;21.33;66.57
69574;BME280;62840;52.366;5.980;2023-07-09T06:08:14;101711.00;;;21.38;66.89
69574;BME280;62840;52.366;5.980;2023-07-09T06:10:49;101716.56;;;21.45;66.55
69574;BME280;62840;52.366;5.980;2023-07-09T06:13:18;101719.22;;;21.53;66.32
69574;BME280;62840;52.366;5.980;2023-07-09T06:15:44;101712.25;;;21.59;66.36
69574;BME280;62840;52.366;5.980;2023-07-09T06:18:10;101716.94;;;21.65;66.72
69574;BME280;62840;52.366;5.980;2023-07-09T06:20:38;101721.69;;;21.71;67.18
69574;BME280;62840;52.366;5.980;2023-07-09T06:23:04;101724.69;;;21.76;66.62
69574;BME280;62840;52.366;5.980;2023-07-09T06:25:29;101720.25;;;21.83;66.73
69574;BME280;62840;52.366;5.980;2023-07-09T06:27:56;101724.94;;;21.90;66.79
69574;BME280;62840;52.366;5.980;2023-07-09T06:30:25;101722.19;;;21.98;66.97
69574;BME280;62840;52.366;5.980;2023-07-09T06:32:51;101724.00;;;22.05;66.41
69574;BME280;62840;52.366;5.980;2023-07-09T06:35:17;101734.00;;;22.13;66.45
69574;BME280;62840;52.366;5.980;2023-07-09T06:37:42;101732.72;;;22.24;66.36
69574;BME280;62840;52.366;5.980;2023-07-09T06:40:09;101732.84;;;22.31;66.42
69574;BME280;62840;52.366;5.980;2023-07-09T06:42:35;101731.25;;;22.36;65.83
69574;BME280;62840;52.366;5.980;2023-07-09T06:45:01;101740.19;;;22.45;65.85
69574;BME280;62840;52.366;5.980;2023-07-09T06:47:30;101739.44;;;22.51;65.42
69574;BME280;62840;52.366;5.980;2023-07-09T06:49:56;101738.34;;;22.60;65.55
69574;BME280;62840;52.366;5.980;2023-07-09T06:52:21;101743.06;;;22.66;65.42
69574;BME280;62840;52.366;5.980;2023-07-09T06:54:47;101738.56;;;22.74;65.43
69574;BME280;62840;52.366;5.980;2023-07-09T06:57:13;101737.47;;;22.83;64.74
69574;BME280;62840;52.366;5.980;2023-07-09T06:59:39;101738.41;;;22.90;64.78
69574;BME280;62840;52.366;5.980;2023-07-09T07:02:05;101743.78;;;22.98;64.93
69574;BME280;62840;52.366;5.980;2023-07-09T07:04:33;101743.00;;;23.04;64.78
69574;BME280;62840;52.366;5.980;2023-07-09T07:06:59;101743.31;;;23.09;64.76
69574;BME280;62840;52.366;5.980;2023-07-09T07:09:25;101747.63;;;23.19;64.91
69574;BME280;62840;52.366;5.980;2023-07-09T07:11:51;101749.56;;;23.25;64.60
69574;BME280;62840;52.366;5.980;2023-07-09T07:14:16;101747.78;;;23.32;64.82
69574;BME280;62840;52.366;5.980;2023-07-09T07:16:42;101750.78;;;23.37;64.53
69574;BME280;62840;52.366;5.980;2023-07-09T07:19:08;101747.97;;;23.45;64.56
69574;BME280;62840;52.366;5.980;2023-07-09T07:21:36;101747.22;;;23.51;64.49
69574;BME280;62840;52.366;5.980;2023-07-09T07:24:02;101741.03;;;23.58;64.21
69574;BME280;62840;52.366;5.980;2023-07-09T07:26:28;101741.94;;;23.65;64.21
69574;BME280;62840;52.366;5.980;2023-07-09T07:28:54;101738.94;;;23.75;64.14
69574;BME280;62840;52.366;5.980;2023-07-09T07:31:20;101739.63;;;23.83;63.95
69574;BME280;62840;52.366;5.980;2023-07-09T07:33:46;101740.56;;;23.90;63.84
69574;BME280;62840;52.366;5.980;2023-07-09T07:36:12;101743.16;;;23.99;63.60
69574;BME280;62840;52.366;5.980;2023-07-09T07:38:40;101736.94;;;24.05;63.61
69574;BME280;62840;52.366;5.980;2023-07-09T07:41:07;101750.44;;;24.13;63.84
69574;BME280;62840;52.366;5.980;2023-07-09T07:43:33;101754.09;;;24.20;63.50
69574;BME280;62840;52.366;5.980;2023-07-09T07:45:59;101743.91;;;24.29;63.47
69574;BME280;62840;52.366;5.980;2023-07-09T07:48:25;101742.06;;;24.36;63.67
69574;BME280;62840;52.366;5.980;2023-07-09T07:50:50;101740.06;;;24.45;63.30
69574;BME280;62840;52.366;5.980;2023-07-09T07:53:16;101750.81;;;24.53;63.50
69574;BME280;62840;52.366;5.980;2023-07-09T07:55:44;101744.56;;;24.59;62.95
69574;BME280;62840;52.366;5.980;2023-07-09T07:58:11;101737.09;;;24.68;63.00
69574;BME280;62840;52.366;5.980;2023-07-09T08:00:38;101741.53;;;24.75;63.53
69574;BME280;62840;52.366;5.980;2023-07-09T08:03:04;101744.13;;;24.84;63.00
69574;BME280;62840;52.366;5.980;2023-07-09T08:05:31;101746.91;;;24.90;62.85
69574;BME280;62840;52.366;5.980;2023-07-09T08:07:56;101743.19;;;24.98;62.97
69574;BME280;62840;52.366;5.980;2023-07-09T08:10:22;101738.63;;;25.05;62.50
69574;BME280;62840;52.366;5.980;2023-07-09T08:12:51;101739.50;;;25.12;62.11
69574;BME280;62840;52.366;5.980;2023-07-09T08:15:17;101737.66;;;25.20;62.81
69574;BME280;62840;52.366;5.980;2023-07-09T08:17:42;101738.69;;;25.25;62.31
69574;BME280;62840;52.366;5.980;2023-07-09T08:20:09;101739.59;;;25.32;61.81
69574;BME280;62840;52.366;5.980;2023-07-09T08:22:35;101741.31;;;25.40;62.04
69574;BME280;62840;52.366;5.980;2023-07-09T08:25:01;101744.91;;;25.47;62.33
69574;BME280;62840;52.366;5.980;2023-07-09T08:27:26;101744.09;;;25.53;61.79
69574;BME280;62840;52.366;5.980;2023-07-09T08:29:55;101747.72;;;25.61;61.60
69574;BME280;62840;52.366;5.980;2023-07-09T08:32:20;101757.84;;;25.67;61.50
69574;BME280;62840;52.366;5.980;2023-07-09T08:34:46;101749.84;;;25.72;61.39
69574;BME280;62840;52.366;5.980;2023-07-09T08:37:12;101749.03;;;25.78;61.25
69574;BME280;62840;52.366;5.980;2023-07-09T08:39:38;101745.50;;;25.84;60.51
69574;BME280;62840;52.366;5.980;2023-07-09T08:42:06;101747.38;;;25.90;60.94
69574;BME280;62840;52.366;5.980;2023-07-09T08:45:03;101740.03;;;25.97;60.22
69574;BME280;62840;52.366;5.980;2023-07-09T08:47:47;101740.03;;;26.04;60.12
69574;BME280;62840;52.366;5.980;2023-07-09T08:50:26;101735.66;;;26.10;60.17
69574;BME280;62840;52.366;5.980;2023-07-09T08:52:58;101741.97;;;26.17;59.76
69574;BME280;62840;52.366;5.980;2023-07-09T08:55:26;101746.63;;;26.23;59.89
69574;BME280;62840;52.366;5.980;2023-07-09T08:57:58;101747.47;;;26.30;59.71
69574;BME280;62840;52.366;5.980;2023-07-09T09:00:33;101742.84;;;26.37;59.66
69574;BME280;62840;52.366;5.980;2023-07-09T09:03:10;101733.59;;;26.45;59.64
69574;BME280;62840;52.366;5.980;2023-07-09T09:05:43;101740.75;;;26.53;59.64
69574;BME280;62840;52.366;5.980;2023-07-09T09:11:10;101732.31;;;26.68;58.95
69574;BME280;62840;52.366;5.980;2023-07-09T09:13:41;101726.84;;;26.74;58.43
69574;BME280;62840;52.366;5.980;2023-07-09T09:16:17;101730.41;;;26.81;58.18
69574;BME280;62840;52.366;5.980;2023-07-09T09:18:52;101729.59;;;26.88;57.98
69574;BME280;62840;52.366;5.980;2023-07-09T09:21:25;101724.31;;;26.93;57.70
69574;BME280;62840;52.366;5.980;2023-07-09T09:23:58;101728.94;;;26.99;57.35
69574;BME280;62840;52.366;5.980;2023-07-09T09:26:41;101731.84;;;27.04;56.86
69574;BME280;62840;52.366;5.980;2023-07-09T09:29:11;101731.41;;;27.14;56.94
69574;BME280;62840;52.366;5.980;2023-07-09T09:31:43;101724.22;;;27.19;56.69
69574;BME280;62840;52.366;5.980;2023-07-09T09:34:18;101717.84;;;27.26;56.64
69574;BME280;62840;52.366;5.980;2023-07-09T09:36:44;101725.44;;;27.30;56.38
69574;BME280;62840;52.366;5.980;2023-07-09T09:39:10;101724.56;;;27.36;56.28
69574;BME280;62840;52.366;5.980;2023-07-09T09:41:37;101722.88;;;27.42;55.13
69574;BME280;62840;52.366;5.980;2023-07-09T09:44:03;101722.44;;;27.45;55.34
69574;BME280;62840;52.366;5.980;2023-07-09T09:46:31;101726.00;;;27.52;54.69
69574;BME280;62840;52.366;5.980;2023-07-09T09:49:02;101723.44;;;27.57;54.44
69574;BME280;62840;52.366;5.980;2023-07-09T09:51:29;101725.75;;;27.60;54.59
69574;BME280;62840;52.366;5.980;2023-07-09T09:53:58;101718.53;;;27.66;54.38
69574;BME280;62840;52.366;5.980;2023-07-09T09:56:27;101721.88;;;27.75;54.52
69574;BME280;62840;52.366;5.980;2023-07-09T09:58:57;101715.06;;;27.84;54.54
69574;BME280;62840;52.366;5.980;2023-07-09T10:01:27;101708.69;;;27.90;54.33
69574;BME280;62840;52.366;5.980;2023-07-09T10:03:56;101714.59;;;27.94;54.36
69574;BME280;62840;52.366;5.980;2023-07-09T10:06:34;101716.66;;;27.98;54.08
69574;BME280;62840;52.366;5.980;2023-07-09T10:09:05;101714.09;;;28.03;53.56
69574;BME280;62840;52.366;5.980;2023-07-09T10:11:46;101717.03;;;28.09;53.37
69574;BME280;62840;52.366;5.980;2023-07-09T10:14:27;101712.34;;;28.16;53.02
69574;BME280;62840;52.366;5.980;2023-07-09T10:17:03;101715.69;;;28.18;52.45
69574;BME280;62840;52.366;5.980;2023-07-09T10:19:47;101718.44;;;28.18;52.40
69574;BME280;62840;52.366;5.980;2023-07-09T10:22:24;101714.81;;;28.24;52.57
69574;BME280;62840;52.366;5.980;2023-07-09T10:25:13;101706.75;;;28.29;52.11
69574;BME280;62840;52.366;5.980;2023-07-09T10:28:05;101705.22;;;28.33;51.97
69574;BME280;62840;52.366;5.980;2023-07-09T10:30:50;101703.72;;;28.37;52.29
69574;BME280;62840;52.366;5.980;2023-07-09T10:33:27;101702.84;;;28.43;52.81
69574;BME280;62840;52.366;5.980;2023-07-09T10:36:11;101694.75;;;28.48;51.84
69574;BME280;62840;52.366;5.980;2023-07-09T10:38:55;101694.28;;;28.52;52.36
69574;BME280;62840;52.366;5.980;2023-07-09T10:41:25;101691.72;;;28.57;52.34
69574;BME280;62840;52.366;5.980;2023-07-09T10:43:56;101686.19;;;28.63;51.78
69574;BME280;62840;52.366;5.980;2023-07-09T10:46:31;101678.94;;;28.69;51.67
69574;BME280;62840;52.366;5.980;2023-07-09T10:49:00;101684.38;;;28.76;51.69
69574;BME280;62840;52.366;5.980;2023-07-09T10:51:31;101679.88;;;28.81;51.91
69574;BME280;62840;52.366;5.980;2023-07-09T10:54:10;101680.66;;;28.88;51.53
69574;BME280;62840;52.366;5.980;2023-07-09T10:56:42;101679.13;;;28.93;51.46
69574;BME280;62840;52.366;5.980;2023-07-09T10:59:18;101678.19;;;28.99;51.40
69574;BME280;62840;52.366;5.980;2023-07-09T11:01:50;101678.09;;;29.05;51.81
69574;BME280;62840;52.366;5.980;2023-07-09T11:04:35;101673.84;;;29.09;51.23
69574;BME280;62840;52.366;5.980;2023-07-09T11:07:10;101673.75;;;29.16;51.06
69574;BME280;62840;52.366;5.980;2023-07-09T11:09:44;101679.38;;;29.21;51.25
69574;BME280;62840;52.366;5.980;2023-07-09T11:12:17;101678.94;;;29.24;51.24
69574;BME280;62840;52.366;5.980;2023-07-09T11:14:53;101674.66;;;29.28;50.59
69574;BME280;62840;52.366;5.980;2023-07-09T11:17:23;101677.59;;;29.34;50.93
69574;BME280;62840;52.366;5.980;2023-07-09T11:19:55;101687.63;;;29.40;50.37
69574;BME280;62840;52.366;5.980;2023-07-09T11:22:25;101686.97;;;29.44;50.05
69574;BME280;62840;52.366;5.980;2023-07-09T11:25:06;101689.38;;;29.53;49.67
69574;BME280;62840;52.366;5.980;2023-07-09T11:27:45;101684.84;;;29.58;49.39
69574;BME280;62840;52.366;5.980;2023-07-09T11:30:20;101679.50;;;29.63;49.29
69574;BME280;62840;52.366;5.980;2023-07-09T11:32:52;101676.88;;;29.68;49.35
69574;BME280;62840;52.366;5.980;2023-07-09T11:35:23;101667.06;;;29.73;49.08
69574;BME280;62840;52.366;5.980;2023-07-09T11:37:50;101664.47;;;29.78;49.39
69574;BME280;62840;52.366;5.980;2023-07-09T11:40:20;101655.28;;;29.84;49.25
69574;BME280;62840;52.366;5.980;2023-07-09T11:42:49;101657.56;;;29.87;48.98
69574;BME280;62840;52.366;5.980;2023-07-09T11:45:19;101665.72;;;29.94;48.99
69574;BME280;62840;52.366;5.980;2023-07-09T11:47:53;101654.00;;;29.98;48.91
69574;BME280;62840;52.366;5.980;2023-07-09T11:50:27;101633.81;;;30.04;48.51
69574;BME280;62840;52.366;5.980;2023-07-09T11:52:56;101632.25;;;30.08;48.67
69574;BME280;62840;52.366;5.980;2023-07-09T11:55:38;101629.00;;;30.11;48.36
69574;BME280;62840;52.366;5.980;2023-07-09T11:58:09;101634.66;;;30.17;48.40
69574;BME280;62840;52.366;5.980;2023-07-09T12:00:38;101634.19;;;30.20;48.39
69574;BME280;62840;52.366;5.980;2023-07-09T12:03:10;101630.69;;;30.24;47.85
69574;BME280;62840;52.366;5.980;2023-07-09T12:05:48;101637.41;;;30.28;48.28
69574;BME280;62840;52.366;5.980;2023-07-09T12:08:16;101641.59;;;30.31;47.48
69574;BME280;62840;52.366;5.980;2023-07-09T12:10:46;101651.66;;;30.37;48.07
69574;BME280;62840;52.366;5.980;2023-07-09T12:13:16;101640.16;;;30.40;47.25
69574;BME280;62840;52.366;5.980;2023-07-09T12:15:42;101644.38;;;30.43;47.26
69574;BME280;62840;52.366;5.980;2023-07-09T12:18:11;101640.88;;;30.47;46.59
69574;BME280;62840;52.366;5.980;2023-07-09T12:20:40;101638.72;;;30.49;46.82
69574;BME280;62840;52.366;5.980;2023-07-09T12:23:10;101633.22;;;30.49;46.84
69574;BME280;62840;52.366;5.980;2023-07-09T12:25:36;101626.66;;;30.50;47.10
69574;BME280;62840;52.366;5.980;2023-07-09T12:28:13;101620.56;;;30.48;46.97
69574;BME280;62840;52.366;5.980;2023-07-09T12:30:39;101612.75;;;30.45;47.28
69574;BME280;62840;52.366;5.980;2023-07-09T12:33:07;101610.50;;;30.42;46.99
69574;BME280;62840;52.366;5.980;2023-07-09T12:35:33;101616.47;;;30.39;47.28
69574;BME280;62840;52.366;5.980;2023-07-09T12:37:59;101624.59;;;30.34;47.67
69574;BME280;62840;52.366;5.980;2023-07-09T12:40:28;101610.72;;;30.29;47.21
69574;BME280;62840;52.366;5.980;2023-07-09T12:42:55;101604.84;;;30.25;47.17
69574;BME280;62840;52.366;5.980;2023-07-09T12:45:24;101597.31;;;30.21;47.41
69574;BME280;62840;52.366;5.980;2023-07-09T12:47:50;101597.81;;;30.18;47.65
69574;BME280;62840;52.366;5.980;2023-07-09T12:50:27;101596.59;;;30.13;47.44
69574;BME280;62840;52.366;5.980;2023-07-09T12:52:59;101604.75;;;30.08;48.29
69574;BME280;62840;52.366;5.980;2023-07-09T12:55:40;101607.38;;;30.03;48.09
69574;BME280;62840;52.366;5.980;2023-07-09T12:58:10;101620.53;;;30.01;48.80
69574;BME280;62840;52.366;5.980;2023-07-09T13:00:47;101631.53;;;30.01;48.72